Terminal Aerodrome Forecast
Issued by NWS

Home | Current Version | Previous Version | Text Only | Print | Product List | Glossary Off
Versions: 1 2 3 4 5 6 7 8 9 10 11 12 13

000
FTUS43 KFGF 191700
TAFBJI
TAF
KBJI 191728Z 1918/2018 16010KT 4SM BR OVC005
      TEMPO 1918/1922 2SM -FZDZ BR
     FM192200 14006KT 3SM BR OVC004
     FM200200 15006KT 2SM BR OVC002=

USA.gov is the U.S. government's official web portal to all federal, state and local government web resources and services.